Current Weather

Catalina

Avalon, California (KAVX)

Report from: Sunday, February 25, 2024 12:51 PM PST
Current time: Sunday, February 25, 2024 1:17 PM PST

Nearby weather – Weather history – Daily summaries
Weather forecast

Temperature13.9°C (57.0°F)
Dew point11.1°C (52.0°F)
Winds 6 kts (3.1 m/s, 6.9 mph) West (270°)
Visibility10 mi. (16.1 km)
Clouds Scattered clouds 500 ft. (152 m)
Altimeter30.07 in.Hg (1018 mB)
Relative humidity83 %
Density altitude-82 ft. (-25 m)
Sea-level pressure101.7 kPa (1017 mB, 30.04 in.Hg)
Remarks Fully automated report
System requires maintenance
Automated weather observing station with precipitation discriminator
Flight conditions Visual Meteorological Conditions
Raw dataKAVX 252051Z AUTO 27006KT 10SM SCT005 14/11 A3007 RMK AO2 SLP173 T01390111 $
An error has occurred. This application may no longer respond until reloaded. Reload 🗙